Time;durP1;ratioP1;P1;durP2;ratioP2;P2;SDS_P1;SDS_P2;PMS_P1;PMS_P2;Temp;Humidity;BMP_temperature;BMP_pressure;BME280_temperature;BME280_humidity;BME280_pressure;Samples;Min_cycle;Max_cycle;Signal;HPM_P1;HPM_P2
2022/10/30 00:00:26;;;;;;;20.25;16.23;;;13.70;99.90;;;;;;5052657;28;20084;-63
2022/10/30 00:02:51;;;;;;;18.80;16.50;;;13.70;99.90;;;;;;5053138;28;20079;-63
2022/10/30 00:05:19;;;;;;;20.70;17.70;;;13.70;99.90;;;;;;5052675;28;20476;-63
2022/10/30 00:07:45;;;;;;;23.80;20.02;;;13.60;99.90;;;;;;5053013;28;20036;-63
2022/10/30 00:10:10;;;;;;;22.77;18.73;;;13.50;99.90;;;;;;5052925;28;20383;-63
2022/10/30 00:12:36;;;;;;;20.98;17.15;;;13.40;99.90;;;;;;5052879;28;20028;-63
2022/10/30 00:15:02;;;;;;;20.65;18.00;;;13.40;99.90;;;;;;5055917;28;20166;-63
2022/10/30 00:17:28;;;;;;;16.83;14.82;;;13.40;99.90;;;;;;5056559;28;20013;-63
2022/10/30 00:19:54;;;;;;;18.08;15.27;;;13.40;99.90;;;;;;5056232;28;20033;-63
2022/10/30 00:22:19;;;;;;;20.42;16.95;;;13.40;99.90;;;;;;5056751;28;20025;-63
2022/10/30 00:24:45;;;;;;;19.88;16.13;;;13.40;99.90;;;;;;5056378;28;20059;-62
2022/10/30 00:27:10;;;;;;;27.00;21.45;;;13.40;99.90;;;;;;5056457;28;20036;-63
2022/10/30 00:29:36;;;;;;;29.75;23.50;;;13.20;99.90;;;;;;5056218;28;20060;-63
2022/10/30 00:32:02;;;;;;;24.05;20.23;;;13.10;99.90;;;;;;5056493;28;20375;-62
2022/10/30 00:34:27;;;;;;;21.55;18.13;;;13.10;99.90;;;;;;5056144;28;20479;-63
2022/10/30 00:36:53;;;;;;;21.40;17.75;;;13.10;99.90;;;;;;5056195;28;20029;-63
2022/10/30 00:39:18;;;;;;;19.52;16.15;;;13.20;99.90;;;;;;5056035;28;20035;-63
2022/10/30 00:41:44;;;;;;;16.83;14.25;;;13.30;99.90;;;;;;5056131;28;20023;-63
2022/10/30 00:44:35;;;;;;;14.95;13.25;;;13.30;99.90;;;;;;5056310;28;20124;-63
2022/10/30 00:47:03;;;;;;;16.42;12.73;;;13.30;99.90;;;;;;5056038;28;20040;-63
2022/10/30 00:49:34;;;;;;;13.48;11.77;;;13.20;99.90;;;;;;5055807;28;20078;-63
2022/10/30 00:52:02;;;;;;;19.98;15.55;;;13.20;99.90;;;;;;5055845;28;20471;-62
2022/10/30 00:54:28;;;;;;;17.80;15.55;;;13.20;99.90;;;;;;5056155;28;20025;-62
2022/10/30 00:56:55;;;;;;;14.13;12.48;;;13.10;99.90;;;;;;5055853;28;20025;-63
2022/10/30 00:59:26;;;;;;;15.35;12.35;;;13.00;99.90;;;;;;5055611;28;20466;-63
2022/10/30 01:01:52;;;;;;;14.05;11.70;;;13.00;99.90;;;;;;5055689;28;20017;-62
2022/10/30 01:04:21;;;;;;;15.70;12.00;;;13.00;99.90;;;;;;5055514;28;20023;-62
2022/10/30 01:06:50;;;;;;;14.13;11.88;;;13.10;99.90;;;;;;5055603;28;20024;-62
2022/10/30 01:09:17;;;;;;;16.85;13.90;;;13.10;99.90;;;;;;5055625;28;20032;-63
2022/10/30 01:11:43;;;;;;;14.07;12.07;;;13.10;99.90;;;;;;5055584;28;20104;-63
2022/10/30 01:14:11;;;;;;;13.40;12.00;;;13.00;99.90;;;;;;5055694;28;20055;-62
2022/10/30 01:16:56;;;;;;;14.00;12.57;;;12.90;99.90;;;;;;5055415;28;20021;-63
2022/10/30 01:19:30;;;;;;;15.63;13.18;;;12.90;99.90;;;;;;5055545;28;20432;-63
2022/10/30 01:22:05;;;;;;;13.25;11.68;;;12.90;99.90;;;;;;5055463;28;20086;-63
2022/10/30 01:25:05;;;;;;;16.13;13.30;;;12.80;99.90;;;;;;5055008;28;20021;-63
2022/10/30 01:27:59;;;;;;;13.15;11.57;;;12.80;99.90;;;;;;5055212;28;20464;-63
2022/10/30 01:30:51;;;;;;;14.10;12.10;;;12.90;99.90;;;;;;5055097;28;20044;-63
2022/10/30 01:33:42;;;;;;;20.33;14.55;;;12.80;99.90;;;;;;5055201;28;20025;-63
2022/10/30 01:36:20;;;;;;;20.50;15.85;;;12.80;99.90;;;;;;5055042;28;20017;-63
2022/10/30 01:39:21;;;;;;;26.23;20.23;;;12.80;99.90;;;;;;5055099;28;20498;-62
2022/10/30 01:41:47;;;;;;;19.27;13.70;;;12.70;99.90;;;;;;5053847;28;20479;-62
2022/10/30 01:44:30;;;;;;;14.73;13.13;;;12.60;99.90;;;;;;5054974;28;20032;-62
2022/10/30 01:47:23;;;;;;;16.25;13.40;;;12.70;99.90;;;;;;5055031;28;20029;-62
2022/10/30 01:50:23;;;;;;;18.38;14.52;;;12.70;99.90;;;;;;5054837;28;20047;-62
2022/10/30 01:53:06;;;;;;;16.45;13.15;;;12.60;99.90;;;;;;5054836;28;20063;-62
2022/10/30 01:55:53;;;;;;;15.98;13.20;;;12.60;99.90;;;;;;5054875;28;20025;-62
2022/10/30 01:58:44;;;;;;;15.10;12.27;;;12.60;99.90;;;;;;5054900;28;20017;-62
2022/10/30 02:01:11;;;;;;;17.67;12.82;;;12.60;99.90;;;;;;5053394;28;20037;-62
2022/10/30 02:03:37;;;;;;;20.08;15.90;;;12.50;99.90;;;;;;5054557;28;20032;-62
2022/10/30 02:06:03;;;;;;;19.73;15.73;;;12.60;99.90;;;;;;5054880;28;20025;-62
2022/10/30 02:08:29;;;;;;;15.15;12.10;;;12.50;99.90;;;;;;5054501;28;20028;-62
2022/10/30 02:10:55;;;;;;;13.88;11.20;;;12.40;99.90;;;;;;5054394;28;20021;-62
2022/10/30 02:13:22;;;;;;;15.27;12.30;;;12.40;99.90;;;;;;5054681;28;20028;-62
2022/10/30 02:15:48;;;;;;;12.07;9.75;;;12.50;99.90;;;;;;5054259;28;20148;-62
2022/10/30 02:18:14;;;;;;;13.27;9.90;;;12.40;99.90;;;;;;5054244;28;20025;-62
2022/10/30 02:20:40;;;;;;;10.68;9.07;;;12.40;99.90;;;;;;5054468;28;20029;-62
2022/10/30 02:23:07;;;;;;;11.30;9.07;;;12.40;99.90;;;;;;5054235;28;20048;-62
2022/10/30 02:25:33;;;;;;;10.70;8.70;;;12.40;99.90;;;;;;5054269;28;20378;-61
2022/10/30 02:27:59;;;;;;;9.65;8.23;;;12.40;99.90;;;;;;5054099;28;20388;-62
2022/10/30 02:30:25;;;;;;;9.60;8.60;;;12.50;99.90;;;;;;5053886;28;20098;-62
2022/10/30 02:32:50;;;;;;;11.85;8.80;;;12.50;99.90;;;;;;5054294;28;20025;-62
2022/10/30 02:35:16;;;;;;;8.75;7.28;;;12.40;99.90;;;;;;5053907;28;20021;-62
2022/10/30 02:37:42;;;;;;;8.05;7.20;;;12.40;99.90;;;;;;5053287;28;20029;-62
2022/10/30 02:40:08;;;;;;;8.70;7.80;;;12.40;99.90;;;;;;5053792;28;20025;-62
2022/10/30 02:42:34;;;;;;;10.45;8.15;;;12.40;99.90;;;;;;5053780;28;20025;-62
2022/10/30 02:45:00;;;;;;;10.10;8.60;;;12.30;99.90;;;;;;5053564;28;20525;-62
2022/10/30 02:47:27;;;;;;;9.85;8.10;;;12.30;99.90;;;;;;5053988;28;20021;-62
2022/10/30 02:49:53;;;;;;;7.88;7.05;;;12.30;99.90;;;;;;5053907;28;20025;-62
2022/10/30 02:52:18;;;;;;;10.18;8.18;;;12.30;99.90;;;;;;5069097;28;20155;-62
2022/10/30 02:54:44;;;;;;;9.90;8.60;;;12.30;99.90;;;;;;5053684;28;20053;-62
2022/10/30 02:57:09;;;;;;;9.65;8.43;;;12.30;99.90;;;;;;5053559;28;20024;-62
2022/10/30 02:59:35;;;;;;;10.27;8.13;;;12.20;99.90;;;;;;5053577;28;20063;-62
2022/10/30 03:02:01;;;;;;;10.15;8.98;;;12.20;99.90;;;;;;5053716;28;20027;-62
2022/10/30 03:04:26;;;;;;;12.32;11.02;;;12.10;99.90;;;;;;5053478;28;20025;-62
2022/10/30 03:06:52;;;;;;;15.23;13.10;;;12.20;99.90;;;;;;5053691;28;20052;-62
2022/10/30 03:09:18;;;;;;;11.00;9.90;;;12.00;99.90;;;;;;5053556;28;20024;-62
2022/10/30 03:11:43;;;;;;;11.80;9.90;;;11.90;99.90;;;;;;5053405;28;20086;-62
2022/10/30 03:14:09;;;;;;;14.23;11.93;;;11.90;99.90;;;;;;5053157;28;20071;-62
2022/10/30 03:16:36;;;;;;;12.73;10.25;;;12.00;99.90;;;;;;5053350;28;20021;-62
2022/10/30 03:19:02;;;;;;;11.13;9.40;;;12.00;99.90;;;;;;5053258;28;20107;-62
2022/10/30 03:21:28;;;;;;;10.32;9.23;;;11.90;99.90;;;;;;5053429;28;20071;-62
2022/10/30 03:23:54;;;;;;;11.68;10.48;;;11.90;99.90;;;;;;5053539;28;20025;-63
2022/10/30 03:26:20;;;;;;;12.30;9.90;;;12.00;99.90;;;;;;5053312;28;20021;-62
2022/10/30 03:28:45;;;;;;;11.40;10.00;;;12.00;99.90;;;;;;5052842;28;20021;-63
2022/10/30 03:31:13;;;;;;;11.77;9.90;;;12.00;99.90;;;;;;5052980;28;20052;-62
2022/10/30 03:33:40;;;;;;;10.98;8.82;;;12.00;99.90;;;;;;5053176;28;20027;-62
2022/10/30 03:36:07;;;;;;;11.40;9.65;;;12.00;99.90;;;;;;5053071;28;20021;-62
2022/10/30 03:38:33;;;;;;;12.73;10.27;;;12.00;99.90;;;;;;5053154;28;20422;-62
2022/10/30 03:40:59;;;;;;;11.38;9.38;;;12.00;99.90;;;;;;5053081;28;20025;-62
2022/10/30 03:43:25;;;;;;;10.75;9.13;;;11.90;99.90;;;;;;5052832;28;20021;-62
2022/10/30 03:45:53;;;;;;;11.68;10.05;;;11.80;99.90;;;;;;5053016;28;20025;-63
2022/10/30 03:48:20;;;;;;;9.55;8.23;;;11.90;99.90;;;;;;5055167;28;20025;-63
2022/10/30 03:50:46;;;;;;;9.95;8.70;;;11.80;99.90;;;;;;5057140;28;20036;-62
2022/10/30 03:53:13;;;;;;;11.90;9.38;;;11.80;99.90;;;;;;5056990;28;20046;-62
2022/10/30 03:55:39;;;;;;;12.45;9.50;;;11.90;99.90;;;;;;5056923;28;20075;-62
2022/10/30 03:58:05;;;;;;;12.85;10.10;;;11.80;99.90;;;;;;5057060;28;20021;-62
2022/10/30 04:00:31;;;;;;;12.70;10.05;;;11.80;99.90;;;;;;5056977;28;20035;-62
2022/10/30 04:02:57;;;;;;;13.45;9.23;;;11.80;99.90;;;;;;5056908;28;20120;-62
2022/10/30 04:05:24;;;;;;;10.93;9.25;;;11.80;99.90;;;;;;5057142;28;20021;-62
2022/10/30 04:07:55;;;;;;;9.55;8.43;;;11.80;99.90;;;;;;5056798;28;20025;-62
2022/10/30 04:10:21;;;;;;;8.55;7.75;;;11.80;99.90;;;;;;5056768;28;20017;-62
2022/10/30 04:12:47;;;;;;;11.65;8.85;;;11.80;99.90;;;;;;5056656;28;20070;-62
2022/10/30 04:15:12;;;;;;;7.65;6.82;;;11.80;99.90;;;;;;5056889;28;20017;-62
2022/10/30 04:17:38;;;;;;;9.82;7.68;;;11.70;99.90;;;;;;5056710;28;20025;-62
2022/10/30 04:20:04;;;;;;;9.52;8.60;;;11.70;99.90;;;;;;5056590;28;20060;-62
2022/10/30 04:22:30;;;;;;;8.00;7.20;;;11.60;99.90;;;;;;5056376;28;20017;-62
2022/10/30 04:24:56;;;;;;;8.75;7.63;;;11.60;99.90;;;;;;5056596;28;20070;-62
2022/10/30 04:27:21;;;;;;;8.27;7.47;;;11.60;99.90;;;;;;5056382;28;20029;-62
2022/10/30 04:29:47;;;;;;;7.53;6.65;;;11.60;99.90;;;;;;5056161;28;20072;-63
2022/10/30 04:32:13;;;;;;;7.25;6.55;;;11.60;99.90;;;;;;5056510;28;20476;-62
2022/10/30 04:34:38;;;;;;;9.05;7.70;;;11.60;99.90;;;;;;5056308;28;20035;-62
2022/10/30 04:37:05;;;;;;;9.20;8.15;;;11.50;99.90;;;;;;5056314;28;20017;-62
2022/10/30 04:39:31;;;;;;;7.55;6.68;;;11.60;99.90;;;;;;5055908;28;20039;-62
2022/10/30 04:41:57;;;;;;;8.38;6.55;;;11.60;99.90;;;;;;5056658;28;20028;-61
2022/10/30 04:44:22;;;;;;;8.32;7.43;;;11.60;99.90;;;;;;5056220;28;20017;-62
2022/10/30 04:46:48;;;;;;;7.25;6.55;;;11.60;99.90;;;;;;5055920;28;20105;-62
2022/10/30 04:49:14;;;;;;;8.43;6.70;;;11.60;99.90;;;;;;5056028;28;20162;-62
2022/10/30 04:51:39;;;;;;;7.53;6.72;;;11.60;99.90;;;;;;5055999;28;20107;-62
2022/10/30 04:54:05;;;;;;;8.05;6.60;;;11.50;99.90;;;;;;5055709;28;20056;-62
2022/10/30 04:56:31;;;;;;;9.77;7.18;;;11.60;99.90;;;;;;5056071;28;20487;-63
2022/10/30 04:58:58;;;;;;;11.88;9.80;;;11.50;99.90;;;;;;5055229;28;20391;-63
2022/10/30 05:01:24;;;;;;;8.27;6.95;;;11.50;99.90;;;;;;5055547;28;20037;-62
2022/10/30 05:03:50;;;;;;;7.93;6.90;;;11.40;99.90;;;;;;5055680;28;20028;-62
2022/10/30 05:06:24;;;;;;;9.18;7.28;;;11.40;99.90;;;;;;5055737;28;20025;-62
2022/10/30 05:08:50;;;;;;;16.15;12.27;;;11.40;99.90;;;;;;5055656;28;20379;-62
2022/10/30 05:11:16;;;;;;;25.23;18.23;;;11.40;99.90;;;;;;5055852;28;20029;-62
2022/10/30 05:13:42;;;;;;;26.20;18.40;;;11.40;99.90;;;;;;5055741;28;20104;-62
2022/10/30 05:16:08;;;;;;;18.75;14.20;;;11.30;99.90;;;;;;5055451;28;20116;-63
2022/10/30 05:18:34;;;;;;;19.30;14.88;;;11.30;99.90;;;;;;5055426;28;20025;-62
2022/10/30 05:20:59;;;;;;;19.55;14.75;;;11.30;99.90;;;;;;5055477;28;20025;-62
2022/10/30 05:23:25;;;;;;;18.52;13.82;;;11.30;99.90;;;;;;5055167;28;20495;-62
2022/10/30 05:25:51;;;;;;;25.23;19.73;;;11.40;99.90;;;;;;5055337;28;20021;-62
2022/10/30 05:28:16;;;;;;;19.85;15.30;;;11.30;99.90;;;;;;5055599;28;20051;-62
2022/10/30 05:30:42;;;;;;;18.30;14.85;;;11.30;99.90;;;;;;5055038;28;20107;-62
2022/10/30 05:33:11;;;;;;;19.30;14.48;;;11.30;99.90;;;;;;5055129;28;20082;-62
2022/10/30 05:35:37;;;;;;;16.15;13.32;;;11.30;99.90;;;;;;5055276;28;20104;-62
2022/10/30 05:38:06;;;;;;;16.88;13.75;;;11.40;99.90;;;;;;5054894;28;20031;-62
2022/10/30 05:40:33;;;;;;;15.32;12.65;;;11.40;99.90;;;;;;5055241;28;20441;-62
2022/10/30 05:42:59;;;;;;;16.90;13.40;;;11.50;99.90;;;;;;5055008;28;20494;-62
2022/10/30 05:45:24;;;;;;;16.70;12.82;;;11.50;99.90;;;;;;5054965;28;20021;-62
2022/10/30 05:47:54;;;;;;;21.10;15.98;;;11.60;99.90;;;;;;5054908;28;20025;-62
2022/10/30 05:50:20;;;;;;;17.55;14.38;;;11.50;99.90;;;;;;5054887;28;20029;-62
2022/10/30 05:52:45;;;;;;;22.27;17.33;;;11.50;99.90;;;;;;5054727;28;20079;-62
2022/10/30 05:55:11;;;;;;;23.65;18.42;;;11.50;99.90;;;;;;5054726;28;20021;-62
2022/10/30 05:57:36;;;;;;;17.25;14.25;;;11.40;99.90;;;;;;5054773;28;20100;-62
2022/10/30 06:00:03;;;;;;;14.48;12.98;;;11.40;99.90;;;;;;5054729;28;20489;-62
2022/10/30 06:02:29;;;;;;;16.50;13.63;;;11.50;99.90;;;;;;5054540;28;20114;-62
2022/10/30 06:04:54;;;;;;;14.52;12.55;;;11.60;99.90;;;;;;5054592;28;20056;-62
2022/10/30 06:07:20;;;;;;;14.00;11.82;;;11.70;99.90;;;;;;5054443;28;20025;-62
2022/10/30 06:09:46;;;;;;;22.52;17.65;;;11.70;99.90;;;;;;5054405;28;20032;-62
2022/10/30 06:12:11;;;;;;;15.55;13.00;;;11.80;99.90;;;;;;5053366;28;20021;-62
2022/10/30 06:14:37;;;;;;;18.33;15.23;;;11.80;99.90;;;;;;5054434;28;20064;-62
2022/10/30 06:17:02;;;;;;;13.55;12.15;;;11.80;99.90;;;;;;5054385;28;20071;-62
2022/10/30 06:19:28;;;;;;;13.55;12.05;;;12.00;99.90;;;;;;5054191;28;20087;-62
2022/10/30 06:21:54;;;;;;;12.05;10.75;;;12.00;99.90;;;;;;5054192;28;20031;-62
2022/10/30 06:24:19;;;;;;;12.20;10.90;;;12.10;99.90;;;;;;5054207;28;20116;-62
2022/10/30 06:26:45;;;;;;;14.65;11.15;;;12.20;99.90;;;;;;5054054;28;20027;-62
2022/10/30 06:29:11;;;;;;;15.27;12.55;;;12.30;99.90;;;;;;5054045;28;20108;-62
2022/10/30 06:31:36;;;;;;;21.13;17.45;;;12.30;99.90;;;;;;5054061;28;20033;-62
2022/10/30 06:34:02;;;;;;;13.27;11.60;;;12.30;99.90;;;;;;5053975;28;20075;-62
2022/10/30 06:36:28;;;;;;;12.57;11.18;;;12.40;99.90;;;;;;5053919;28;20028;-62
2022/10/30 06:38:54;;;;;;;12.25;11.05;;;12.40;99.90;;;;;;5053999;28;20040;-62
2022/10/30 06:41:19;;;;;;;14.00;10.35;;;12.50;99.90;;;;;;5053924;28;20025;-61
2022/10/30 06:43:45;;;;;;;11.05;9.80;;;12.60;99.90;;;;;;5053771;28;20025;-62
2022/10/30 06:46:10;;;;;;;10.05;9.02;;;12.70;99.90;;;;;;5053938;28;20017;-62
2022/10/30 06:48:36;;;;;;;9.88;8.82;;;12.80;99.90;;;;;;5053814;28;20021;-62
2022/10/30 06:51:02;;;;;;;9.40;8.10;;;12.80;99.90;;;;;;5053478;28;20024;-62
2022/10/30 06:53:28;;;;;;;12.98;11.38;;;12.90;99.90;;;;;;5053735;28;20489;-62
2022/10/30 06:56:11;;;;;;;12.05;10.02;;;12.90;99.90;;;;;;5053794;28;20539;-62
2022/10/30 06:58:38;;;;;;;10.40;9.18;;;12.90;99.90;;;;;;5053565;28;20529;-62
2022/10/30 07:01:07;;;;;;;15.57;13.48;;;13.10;99.90;;;;;;5053536;28;20032;-62
2022/10/30 07:03:33;;;;;;;18.58;15.38;;;13.60;99.90;;;;;;5053491;28;20032;-62
2022/10/30 07:05:59;;;;;;;20.27;17.58;;;15.90;99.90;;;;;;5053427;28;20025;-63
2022/10/30 07:08:25;;;;;;;18.95;17.10;;;17.80;95.10;;;;;;5053440;28;20537;-62
2022/10/30 07:10:51;;;;;;;20.20;18.15;;;19.20;84.70;;;;;;5053372;28;20029;-61
2022/10/30 07:13:17;;;;;;;17.73;16.02;;;20.20;69.60;;;;;;5053525;28;20025;-62
2022/10/30 07:15:42;;;;;;;17.88;16.00;;;21.00;66.80;;;;;;5053847;28;20071;-62
2022/10/30 07:18:09;;;;;;;17.95;16.13;;;21.90;62.40;;;;;;5053434;28;20430;-62
2022/10/30 07:20:35;;;;;;;18.10;16.20;;;22.30;58.80;;;;;;5052894;28;20029;-62
2022/10/30 07:23:02;;;;;;;15.68;14.27;;;22.40;57.10;;;;;;5053192;28;20025;-62
2022/10/30 07:25:28;;;;;;;14.65;13.35;;;23.10;57.70;;;;;;5053216;28;20052;-62
2022/10/30 07:27:55;;;;;;;15.40;13.90;;;23.70;55.00;;;;;;5053070;28;20021;-62
2022/10/30 07:30:23;;;;;;;16.25;14.75;;;24.50;52.70;;;;;;5053273;28;20400;-62
2022/10/30 07:33:03;;;;;;;13.93;12.63;;;25.00;51.20;;;;;;5053193;28;20476;-62
2022/10/30 07:35:30;;;;;;;17.17;15.40;;;25.40;50.30;;;;;;5053253;28;20025;-62
2022/10/30 07:38:01;;;;;;;15.52;14.02;;;25.30;50.20;;;;;;5053172;28;20024;-62
2022/10/30 07:40:27;;;;;;;15.90;14.30;;;25.50;51.00;;;;;;5052939;28;20033;-62
2022/10/30 07:42:56;;;;;;;17.25;15.65;;;26.10;50.00;;;;;;5053170;28;20013;-62
2022/10/30 07:45:22;;;;;;;16.92;15.32;;;26.40;47.30;;;;;;5053305;28;20025;-62
2022/10/30 07:47:48;;;;;;;16.58;14.98;;;26.40;47.60;;;;;;5053283;28;20128;-62
2022/10/30 07:50:14;;;;;;;16.60;15.00;;;26.30;47.30;;;;;;5053033;28;20491;-62
2022/10/30 07:52:39;;;;;;;15.65;14.15;;;26.10;47.60;;;;;;5053154;28;20021;-62
2022/10/30 07:55:06;;;;;;;14.90;13.40;;;26.20;47.20;;;;;;5052916;28;20028;-62
2022/10/30 07:57:39;;;;;;;16.25;14.35;;;26.30;47.30;;;;;;5053213;28;20017;-62
2022/10/30 08:00:07;;;;;;;13.80;12.57;;;26.40;48.30;;;;;;5053147;28;20037;-62
2022/10/30 08:02:33;;;;;;;12.02;10.93;;;26.70;47.40;;;;;;5053055;28;20025;-62
2022/10/30 08:04:58;;;;;;;12.90;11.70;;;26.70;46.90;;;;;;5052709;28;20429;-62
2022/10/30 08:07:31;;;;;;;13.43;12.07;;;26.70;47.00;;;;;;5052925;28;20379;-62
2022/10/30 08:09:57;;;;;;;;;;;26.90;46.40;;;;;;5053191;28;20033;-62
2022/10/30 08:12:24;;;;;;;11.45;10.35;;;27.10;46.40;;;;;;5052887;28;20283;-63
2022/10/30 08:14:50;;;;;;;9.93;9.02;;;27.40;47.20;;;;;;5052860;28;20013;-62
2022/10/30 08:17:16;;;;;;;10.75;9.80;;;27.50;45.50;;;;;;5052433;28;20027;-62
2022/10/30 08:19:41;;;;;;;11.65;10.48;;;27.00;46.10;;;;;;5052814;28;20021;-62
2022/10/30 08:22:09;;;;;;;13.98;12.52;;;26.40;46.90;;;;;;5052805;28;20462;-62
2022/10/30 08:24:35;;;;;;;11.57;10.48;;;25.50;47.90;;;;;;5052562;28;20017;-62
2022/10/30 08:27:00;;;;;;;11.00;9.98;;;24.60;49.80;;;;;;5052762;28;20521;-62
2022/10/30 08:29:26;;;;;;;11.15;10.07;;;24.00;51.00;;;;;;5052434;28;20049;-62
2022/10/30 08:31:52;;;;;;;11.43;10.32;;;23.90;51.60;;;;;;5052460;28;20025;-62
2022/10/30 08:34:18;;;;;;;12.27;10.95;;;23.60;51.60;;;;;;5052861;28;20025;-62
2022/10/30 08:36:43;;;;;;;12.70;11.48;;;23.20;52.50;;;;;;5056408;28;20028;-62
2022/10/30 08:39:09;;;;;;;11.98;10.77;;;22.80;53.60;;;;;;5056172;28;20035;-62
2022/10/30 08:41:35;;;;;;;15.25;13.65;;;22.50;54.70;;;;;;5056171;28;20053;-62
2022/10/30 08:44:00;;;;;;;12.32;11.13;;;22.20;56.30;;;;;;5056276;28;20021;-62
2022/10/30 08:46:26;;;;;;;11.73;10.55;;;21.60;58.60;;;;;;5055923;28;20033;-62
2022/10/30 08:48:53;;;;;;;10.10;9.20;;;21.70;60.80;;;;;;5056274;28;20024;-62
2022/10/30 08:51:19;;;;;;;11.20;10.10;;;21.70;59.70;;;;;;5056260;28;20029;-62
2022/10/30 08:53:48;;;;;;;12.57;11.38;;;21.80;59.00;;;;;;5056098;28;20424;-62
2022/10/30 08:56:14;;;;;;;14.55;13.15;;;21.80;58.90;;;;;;5055895;28;20060;-62
2022/10/30 08:58:39;;;;;;;11.65;10.60;;;22.00;58.90;;;;;;5055832;28;20408;-62
2022/10/30 09:01:05;;;;;;;11.43;10.32;;;21.70;62.50;;;;;;5071093;28;20075;-62
2022/10/30 09:03:30;;;;;;;14.73;11.65;;;21.90;60.50;;;;;;5055695;28;20021;-62
2022/10/30 09:06:00;;;;;;;13.20;12.00;;;22.00;59.80;;;;;;5055782;28;20036;-62
2022/10/30 09:08:27;;;;;;;12.93;11.60;;;22.20;60.40;;;;;;5055798;28;20091;-62
2022/10/30 09:10:57;;;;;;;10.52;9.52;;;22.40;64.60;;;;;;5055573;28;20020;-62
2022/10/30 09:13:23;;;;;;;10.52;9.60;;;22.70;63.30;;;;;;5055720;28;20017;-61
2022/10/30 09:15:49;;;;;;;8.50;7.80;;;23.10;61.00;;;;;;5055357;28;20491;-62
2022/10/30 09:18:15;;;;;;;9.20;8.30;;;23.20;59.10;;;;;;5055439;28;20024;-61
2022/10/30 09:20:41;;;;;;;8.77;7.97;;;23.40;56.20;;;;;;5055694;28;20029;-61
2022/10/30 09:23:07;;;;;;;7.50;6.82;;;23.50;57.50;;;;;;5055548;28;20031;-61
2022/10/30 09:25:33;;;;;;;8.23;7.43;;;23.60;56.60;;;;;;5055603;28;20021;-63
2022/10/30 09:27:59;;;;;;;10.07;8.68;;;23.70;56.00;;;;;;5055418;28;20033;-61
2022/10/30 09:30:25;;;;;;;8.90;8.00;;;23.80;54.30;;;;;;5054983;28;20048;-61
2022/10/30 09:32:58;;;;;;;11.63;10.40;;;23.70;55.70;;;;;;5055127;28;20471;-61
2022/10/30 09:35:24;;;;;;;10.02;9.07;;;23.50;54.70;;;;;;5055237;28;20336;-61
2022/10/30 09:37:50;;;;;;;9.95;9.02;;;23.30;55.60;;;;;;5055168;28;20083;-62
2022/10/30 09:40:18;;;;;;;8.98;8.05;;;23.50;55.60;;;;;;5054982;28;20033;-61
2022/10/30 09:42:49;;;;;;;9.68;7.88;;;23.50;55.20;;;;;;5055066;28;20046;-62
2022/10/30 09:45:17;;;;;;;8.57;7.70;;;23.50;54.10;;;;;;5054484;28;20021;-62
2022/10/30 09:48:00;;;;;;;9.13;8.23;;;23.60;54.80;;;;;;5054808;28;20021;-61
2022/10/30 09:50:34;;;;;;;12.00;9.50;;;23.60;55.90;;;;;;5055235;28;20086;-61
2022/10/30 09:53:20;;;;;;;9.48;8.32;;;23.90;54.90;;;;;;5054757;28;20261;-61
2022/10/30 09:55:55;;;;;;;9.88;8.38;;;24.20;56.30;;;;;;5054858;28;20017;-61
2022/10/30 09:58:47;;;;;;;11.85;9.07;;;24.60;54.30;;;;;;5054555;28;20135;-61
2022/10/30 10:01:19;;;;;;;10.57;9.57;;;25.00;52.80;;;;;;5051623;28;20095;-61
2022/10/30 10:04:00;;;;;;;11.23;9.77;;;25.30;52.50;;;;;;5054896;28;20108;-61
2022/10/30 10:06:26;;;;;;;10.13;9.13;;;25.60;51.10;;;;;;5054702;28;20430;-61
2022/10/30 10:09:05;;;;;;;8.13;7.32;;;25.60;49.70;;;;;;5054749;28;20028;-61
2022/10/30 10:11:41;;;;;;;7.07;6.45;;;25.50;49.90;;;;;;5054526;28;20024;-61
2022/10/30 10:14:12;;;;;;;7.07;6.35;;;25.60;50.80;;;;;;5054260;28;20028;-61
2022/10/30 10:16:41;;;;;;;6.00;5.50;;;25.80;49.70;;;;;;5054407;28;20020;-61
2022/10/30 10:19:19;;;;;;;6.13;5.55;;;26.10;51.20;;;;;;5054345;28;20491;-62
2022/10/30 10:21:50;;;;;;;6.30;5.75;;;26.10;50.90;;;;;;5054315;28;20021;-61
2022/10/30 10:24:23;;;;;;;6.35;5.85;;;26.40;51.70;;;;;;5054251;28;20021;-61
2022/10/30 10:26:55;;;;;;;5.97;5.40;;;26.30;51.30;;;;;;5054162;28;20013;-61
2022/10/30 10:29:45;;;;;;;5.78;5.28;;;26.40;50.60;;;;;;5053790;28;20530;-63
2022/10/30 10:32:11;;;;;;;6.28;5.78;;;26.70;49.50;;;;;;5054410;28;20028;-61
2022/10/30 10:35:15;;;;;;;5.90;5.38;;;27.10;48.90;;;;;;5054158;28;20387;-61
2022/10/30 10:38:07;;;;;;;5.93;5.32;;;27.50;47.60;;;;;;5054286;28;20028;-63
2022/10/30 10:41:01;;;;;;;5.40;4.90;;;27.70;47.20;;;;;;5053840;28;20029;-61
2022/10/30 10:43:51;;;;;;;4.20;3.90;;;28.00;47.70;;;;;;5053706;28;20029;-62
2022/10/30 10:46:55;;;;;;;4.50;4.10;;;28.20;45.90;;;;;;5053898;28;20029;-61
2022/10/30 10:49:46;;;;;;;3.80;3.50;;;28.50;45.20;;;;;;5041773;28;20060;-61
2022/10/30 10:52:38;;;;;;;3.95;3.55;;;28.60;45.00;;;;;;5043661;28;20041;-62
2022/10/30 10:55:13;;;;;;;3.30;3.00;;;28.60;44.70;;;;;;5053410;28;20033;-62
2022/10/30 10:57:41;;;;;;;4.00;3.15;;;28.40;42.70;;;;;;5053132;28;20029;-61
2022/10/30 11:00:12;;;;;;;3.47;2.92;;;28.60;42.90;;;;;;5053857;28;20360;-61
2022/10/30 11:02:57;;;;;;;4.10;2.85;;;28.70;43.00;;;;;;5053506;28;20024;-61
2022/10/30 11:05:35;;;;;;;3.67;3.00;;;28.70;41.40;;;;;;5053572;28;20017;-61
2022/10/30 11:08:11;;;;;;;3.17;2.88;;;28.70;40.50;;;;;;5053469;28;20040;-61
2022/10/30 11:10:37;;;;;;;3.08;2.60;;;28.70;40.40;;;;;;5053449;28;20036;-61
2022/10/30 11:13:02;;;;;;;3.55;2.97;;;28.80;40.50;;;;;;5053161;28;20025;-61
2022/10/30 11:15:49;;;;;;;3.28;2.97;;;29.00;39.90;;;;;;5053429;28;20029;-61
2022/10/30 11:18:15;;;;;;;3.63;2.97;;;29.00;40.80;;;;;;5053477;28;20032;-61
2022/10/30 11:21:07;;;;;;;5.88;4.22;;;29.40;41.10;;;;;;5053100;28;20437;-61
2022/10/30 11:23:40;;;;;;;3.35;3.05;;;29.60;39.60;;;;;;5053257;28;20028;-61
2022/10/30 11:26:21;;;;;;;2.95;2.75;;;29.50;37.90;;;;;;5053229;28;20475;-61
2022/10/30 11:28:53;;;;;;;2.42;2.17;;;29.30;39.40;;;;;;5053182;28;20064;-61
2022/10/30 11:31:36;;;;;;;2.40;2.20;;;29.40;38.50;;;;;;5053376;28;20057;-61
2022/10/30 11:34:17;;;;;;;;;;;29.70;35.90;;;;;;5053569;28;20027;-61
2022/10/30 11:36:47;;;;;;;2.75;1.83;;;29.80;36.80;;;;;;5053156;28;20378;-61
2022/10/30 11:39:20;;;;;;;2.65;2.13;;;29.90;37.20;;;;;;5053061;28;20536;-61
2022/10/30 11:41:55;;;;;;;2.13;1.92;;;30.00;38.60;;;;;;5052896;28;20021;-61
2022/10/30 11:44:24;;;;;;;2.78;2.22;;;30.30;35.60;;;;;;5053151;28;20028;-61
2022/10/30 11:46:50;;;;;;;2.63;2.42;;;30.40;35.60;;;;;;5053013;28;20104;-61
2022/10/30 11:49:49;;;;;;;2.90;2.10;;;30.40;37.10;;;;;;5053219;28;20053;-61
2022/10/30 11:52:19;;;;;;;2.28;2.03;;;30.50;37.20;;;;;;5052968;28;20104;-61
2022/10/30 11:54:49;;;;;;;3.05;1.98;;;30.50;34.40;;;;;;5052753;28;20021;-61
2022/10/30 11:57:35;;;;;;;3.40;2.22;;;30.60;34.80;;;;;;5052889;28;20494;-61
2022/10/30 12:00:05;;;;;;;2.80;2.08;;;30.70;33.20;;;;;;5052820;28;20541;-61
2022/10/30 12:02:41;;;;;;;1.92;1.73;;;30.70;33.60;;;;;;5052755;28;20025;-61
2022/10/30 12:05:27;;;;;;;2.42;1.92;;;30.70;33.50;;;;;;5052855;28;20078;-61
2022/10/30 12:08:05;;;;;;;2.30;2.10;;;30.80;35.90;;;;;;5052795;28;20017;-62
2022/10/30 12:10:31;;;;;;;2.50;2.30;;;30.70;35.50;;;;;;5056599;28;20123;-61
2022/10/30 12:13:03;;;;;;;2.85;2.17;;;30.70;34.70;;;;;;5056913;28;20092;-62
2022/10/30 12:15:36;;;;;;;3.03;2.72;;;30.60;35.80;;;;;;5056774;28;20017;-61
2022/10/30 12:18:05;;;;;;;3.25;2.55;;;30.60;34.20;;;;;;5056775;28;20056;-61
2022/10/30 12:20:32;;;;;;;2.88;2.53;;;30.60;35.60;;;;;;5056472;28;20083;-61
2022/10/30 12:23:07;;;;;;;3.13;2.67;;;30.70;35.30;;;;;;5056547;28;20017;-62
2022/10/30 12:25:33;;;;;;;3.60;3.10;;;30.90;35.50;;;;;;5056286;28;20071;-61
2022/10/30 12:28:02;;;;;;;3.63;3.30;;;31.10;34.60;;;;;;5056673;28;20024;-61
2022/10/30 12:30:33;;;;;;;2.80;2.60;;;31.30;35.00;;;;;;5056275;28;20403;-61
2022/10/30 12:33:07;;;;;;;2.97;2.67;;;31.40;36.00;;;;;;5056317;28;20430;-61
2022/10/30 12:35:49;;;;;;;3.13;2.83;;;31.30;35.00;;;;;;5056671;28;20064;-61
2022/10/30 12:38:18;;;;;;;;;;;31.30;36.70;;;;;;5056466;28;20029;-61
2022/10/30 12:41:09;;;;;;;4.53;2.70;;;31.20;33.00;;;;;;5056193;28;19923;-61
2022/10/30 12:43:35;;;;;;;4.68;4.18;;;31.00;35.00;;;;;;5055724;28;20475;-61
2022/10/30 12:46:28;;;;;;;3.35;3.08;;;31.10;34.20;;;;;;5056317;28;20024;-62
2022/10/30 12:49:02;;;;;;;3.90;3.58;;;31.10;33.10;;;;;;5056361;28;20033;-61